Pagrindinis puslapis
METAR-TAF:

METAR-TAF

Oro uostai :

Spaa

Mazovijos Tomašuvas, Lenkija

platuma: 51-35-04N, ilguma: 020-05-52E, Aukštis: 174 m

METAR: trūkstamas

Laikas: 22:21 (21:21 UTC)

Prognozė

Ataskaita buvo paskelbta 13 valandos ir 21 minutes, ne 08:00 UTC
Prognozė galioja nuo 20 metu 09 UTC su 20 metu 18 UTC
Vėjas 10 kt iš Vakarų
Matomumas 10 km arba daugiau
Su prošvaistėmis ne aukštis 2500 ft

TAF: EPTM 200800Z 2009/2018 27010KT 9999 BKN025

Orai ataskaitas ir orų prognozės (METAR, TAF).

turimą stotys yra geltonos ir raudonos taškus žemėlapyje.

Perkelti pele per norėdami pamatyti stoties vardą.

Tada spustelėkite, norėdami matyti oro stebėjimo ir prognozės.

Norėdami pakeisti žemėlapį: spustelėkite ant žalios mygtukų su juodo kryžiaus žemyn,; žalią mygtuką su brūkšneliu, jei norite nutolinti; arba žalių rodyklių gretimoms žemėlapius.


METAR-TAF: